createdAt,value
2018-06-03T00:00:57.695Z,16.59
2018-06-03T00:03:29.643Z,16.54
2018-06-03T00:06:01.663Z,16.51
2018-06-03T00:08:33.616Z,16.41
2018-06-03T00:11:05.724Z,16.43
2018-06-03T00:13:37.687Z,16.44
2018-06-03T00:16:09.666Z,16.46
2018-06-03T00:18:41.623Z,16.43
2018-06-03T00:21:25.084Z,16.43
2018-06-03T00:23:57.053Z,16.38
2018-06-03T00:26:29.019Z,16.33
2018-06-03T00:29:00.990Z,16.30
2018-06-03T00:31:32.996Z,16.20
2018-06-03T00:34:04.976Z,16.09
2018-06-03T00:36:45.507Z,16.05
2018-06-03T00:39:17.443Z,16.08
2018-06-03T00:41:49.423Z,16.13
2018-06-03T00:44:21.387Z,16.10
2018-06-03T00:46:53.369Z,16.03
2018-06-03T00:49:25.336Z,15.97
2018-06-03T00:51:57.331Z,16.05
2018-06-03T00:54:29.276Z,15.94
2018-06-03T00:57:09.102Z,15.88
2018-06-03T00:59:41.051Z,15.88
2018-06-03T01:02:13.041Z,15.84
2018-06-03T01:04:44.999Z,15.88
2018-06-03T01:07:16.968Z,15.79
2018-06-03T01:09:48.924Z,15.59
2018-06-03T01:12:20.896Z,15.39
2018-06-03T01:14:52.851Z,15.28
2018-06-03T01:17:24.812Z,15.40
2018-06-03T01:19:56.808Z,15.42
2018-06-03T01:22:28.770Z,15.45
2018-06-03T01:25:01.982Z,15.29
2018-06-03T01:27:33.967Z,15.06
2018-06-03T01:30:05.936Z,14.91
2018-06-03T01:32:37.919Z,14.94
2018-06-03T01:35:10.475Z,14.98
2018-06-03T01:37:42.454Z,15.06
2018-06-03T01:40:14.435Z,15.00
2018-06-03T01:42:46.439Z,15.09
2018-06-03T01:45:18.409Z,15.08
2018-06-03T01:47:57.071Z,15.15
2018-06-03T01:50:29.031Z,15.09
2018-06-03T01:53:01.012Z,15.09
2018-06-03T01:55:33.007Z,15.01
2018-06-03T01:58:04.977Z,15.05
2018-06-03T02:00:36.931Z,15.03
2018-06-03T02:03:08.881Z,14.96
2018-06-03T02:05:40.824Z,14.86
2018-06-03T02:08:12.801Z,14.97
2018-06-03T02:10:44.756Z,15.00
2018-06-03T02:13:16.756Z,14.91
2018-06-03T02:15:48.736Z,14.79
2018-06-03T02:18:20.728Z,14.80
2018-06-03T02:20:52.696Z,14.75
2018-06-03T02:23:24.675Z,14.70
2018-06-03T02:25:56.640Z,14.81
2018-06-03T02:28:28.721Z,14.79
2018-06-03T02:31:00.668Z,14.78
2018-06-03T02:33:32.629Z,14.87
2018-06-03T02:36:06.081Z,14.79
2018-06-03T02:38:38.055Z,14.79
2018-06-03T02:41:10.027Z,14.72
2018-06-03T02:43:42.020Z,14.62
2018-06-03T02:46:13.964Z,14.61
2018-06-03T02:48:45.931Z,14.57
2018-06-03T02:51:17.877Z,14.58
2018-06-03T02:53:49.895Z,14.52
2018-06-03T02:56:21.915Z,14.48
2018-06-03T02:58:53.899Z,14.42
2018-06-03T03:01:25.854Z,14.44
2018-06-03T03:03:57.825Z,14.41
2018-06-03T03:06:29.783Z,14.53
2018-06-03T03:09:01.777Z,14.58
2018-06-03T03:11:33.744Z,14.54
2018-06-03T03:14:05.740Z,14.63
2018-06-03T03:16:37.711Z,14.54
2018-06-03T03:19:09.683Z,14.42
2018-06-03T03:21:41.643Z,14.40
2018-06-03T03:24:13.619Z,14.42
2018-06-03T03:26:45.584Z,14.38
2018-06-03T03:29:17.552Z,14.37
2018-06-03T03:31:49.507Z,14.42
2018-06-03T03:34:21.500Z,14.47
2018-06-03T03:36:53.468Z,14.44
2018-06-03T03:39:25.452Z,14.53
2018-06-03T03:41:57.415Z,14.62
2018-06-03T03:44:29.375Z,14.74
2018-06-03T03:47:01.357Z,14.78
2018-06-03T03:49:33.328Z,14.87
2018-06-03T03:52:05.421Z,14.92
2018-06-03T03:54:37.375Z,15.10
2018-06-03T03:57:09.319Z,15.18
2018-06-03T03:59:41.279Z,15.30
2018-06-03T04:02:13.248Z,15.40
2018-06-03T04:04:45.232Z,15.51
2018-06-03T04:07:17.188Z,15.57
2018-06-03T04:09:49.181Z,15.63
2018-06-03T04:12:21.135Z,15.67
2018-06-03T04:14:53.095Z,15.75
2018-06-03T04:17:25.064Z,15.90
2018-06-03T04:19:57.047Z,15.93
2018-06-03T04:22:29.018Z,16.12
2018-06-03T04:25:00.980Z,16.79
2018-06-03T04:27:32.959Z,17.99
2018-06-03T04:30:04.943Z,19.16
2018-06-03T04:32:36.920Z,20.02
2018-06-03T04:35:08.954Z,20.24
2018-06-03T04:37:40.900Z,20.14
2018-06-03T04:40:12.892Z,20.33
2018-06-03T04:42:44.867Z,20.68
2018-06-03T04:45:16.874Z,20.14
2018-06-03T04:47:48.839Z,18.93
2018-06-03T04:50:20.788Z,18.03
2018-06-03T04:52:52.727Z,18.72
2018-06-03T04:55:24.708Z,19.85
2018-06-03T04:57:56.666Z,19.79
2018-06-03T05:00:28.618Z,21.39
2018-06-03T05:03:00.629Z,22.49
2018-06-03T05:05:32.616Z,23.81
2018-06-03T05:08:04.605Z,24.11
2018-06-03T05:10:36.583Z,24.04
2018-06-03T05:13:08.540Z,24.54
2018-06-03T05:15:40.539Z,25.39
2018-06-03T05:18:12.552Z,26.03
2018-06-03T05:20:44.503Z,25.48
2018-06-03T05:23:16.459Z,25.61
2018-06-03T05:25:48.403Z,25.35
2018-06-03T05:28:20.374Z,24.78
2018-06-03T05:30:52.339Z,24.28
2018-06-03T05:33:24.300Z,24.25
2018-06-03T05:35:56.258Z,25.04
2018-06-03T05:38:28.228Z,25.45
2018-06-03T05:41:00.210Z,25.27
2018-06-03T05:43:32.168Z,25.76
2018-06-03T05:46:04.155Z,25.97
2018-06-03T05:48:36.098Z,26.52
2018-06-03T05:51:08.058Z,27.33
2018-06-03T05:53:40.005Z,28.30
2018-06-03T05:56:11.987Z,26.15
2018-06-03T05:58:43.955Z,26.52
2018-06-03T06:01:15.924Z,26.30
2018-06-03T06:03:47.864Z,26.09
2018-06-03T06:06:19.872Z,26.84
2018-06-03T06:08:51.819Z,27.88
2018-06-03T06:11:23.791Z,28.48
2018-06-03T06:13:55.751Z,27.71
2018-06-03T06:16:27.739Z,27.42
2018-06-03T06:18:59.702Z,28.09
2018-06-03T06:21:31.693Z,28.53
2018-06-03T06:24:03.751Z,28.16
2018-06-03T06:26:35.741Z,29.31
2018-06-03T06:29:07.691Z,29.63
2018-06-03T06:31:39.662Z,29.52
2018-06-03T06:34:11.629Z,30.36
2018-06-03T06:36:43.629Z,30.48
2018-06-03T06:39:15.587Z,30.77
2018-06-03T06:41:47.552Z,30.52
2018-06-03T06:44:19.528Z,32.72
2018-06-03T06:46:51.564Z,31.28
2018-06-03T06:49:23.527Z,31.56
2018-06-03T06:51:55.508Z,32.18
2018-06-03T06:54:27.463Z,32.05
2018-06-03T06:56:59.429Z,32.26
2018-06-03T06:59:31.367Z,32.33
2018-06-03T07:02:03.327Z,33.32
2018-06-03T07:04:35.283Z,31.99
2018-06-03T07:07:07.252Z,32.60
2018-06-03T07:09:39.227Z,33.06
2018-06-03T07:12:11.215Z,33.72
2018-06-03T07:14:43.159Z,34.15
2018-06-03T07:17:15.115Z,34.45
2018-06-03T07:19:47.072Z,32.39
2018-06-03T07:22:19.040Z,33.75
2018-06-03T07:24:50.995Z,33.37
2018-06-03T07:27:22.962Z,33.68
2018-06-03T07:29:54.924Z,35.30
2018-06-03T07:32:26.916Z,34.41
2018-06-03T07:34:58.908Z,34.60
2018-06-03T07:37:30.900Z,35.05
2018-06-03T07:40:02.922Z,33.36
2018-06-03T07:42:34.929Z,34.46
2018-06-03T07:45:06.891Z,35.02
2018-06-03T07:47:38.899Z,34.89
2018-06-03T07:50:10.859Z,34.36
2018-06-03T07:52:42.844Z,33.52
2018-06-03T07:55:14.800Z,33.77
2018-06-03T07:57:46.811Z,35.18
2018-06-03T08:00:18.775Z,34.21
2018-06-03T08:02:50.743Z,32.66
2018-06-03T08:05:22.687Z,33.49
2018-06-03T08:07:54.700Z,34.49
2018-06-03T08:10:26.667Z,33.33
2018-06-03T08:12:58.675Z,34.87
2018-06-03T08:15:30.636Z,33.09
2018-06-03T08:18:02.643Z,33.00
2018-06-03T08:20:34.588Z,33.35
2018-06-03T08:23:06.575Z,34.90
2018-06-03T08:25:38.563Z,35.32
2018-06-03T08:28:10.955Z,35.38
2018-06-03T08:30:42.918Z,35.47
2018-06-03T08:33:14.935Z,35.09
2018-06-03T08:35:46.892Z,34.26
2018-06-03T08:38:18.860Z,33.41
2018-06-03T08:40:50.828Z,32.61
2018-06-03T08:43:22.850Z,34.58
2018-06-03T08:45:54.795Z,34.21
2018-06-03T08:48:26.828Z,34.62
2018-06-03T08:50:58.804Z,36.16
2018-06-03T08:53:30.817Z,35.85
2018-06-03T08:56:02.891Z,34.59
2018-06-03T08:58:34.867Z,34.53
2018-06-03T09:01:06.831Z,33.75
2018-06-03T09:03:38.841Z,33.02
2018-06-03T09:06:10.798Z,34.81
2018-06-03T09:08:42.766Z,35.88
2018-06-03T09:11:14.781Z,36.07
2018-06-03T09:13:47.451Z,34.62
2018-06-03T09:16:19.423Z,34.37
2018-06-03T09:18:51.418Z,35.34
2018-06-03T09:21:23.961Z,36.01
2018-06-03T09:23:55.947Z,34.51
2018-06-03T09:26:27.893Z,34.82
2018-06-03T09:28:59.878Z,35.00
2018-06-03T09:31:31.863Z,34.83
2018-06-03T09:34:03.847Z,33.00
2018-06-03T09:36:35.808Z,32.18
2018-06-03T09:39:08.264Z,33.01
2018-06-03T09:41:40.280Z,34.29
2018-06-03T09:44:12.270Z,31.45
2018-06-03T09:46:44.268Z,30.83
2018-06-03T09:49:16.248Z,31.93
2018-06-03T09:51:48.231Z,33.68
2018-06-03T09:54:20.216Z,33.69
2018-06-03T09:56:52.205Z,33.77
2018-06-03T09:59:24.175Z,34.07
2018-06-03T10:01:56.139Z,35.00
2018-06-03T10:04:28.704Z,34.98
2018-06-03T10:07:00.687Z,34.37
2018-06-03T10:09:32.672Z,34.34
2018-06-03T10:12:04.704Z,34.45
2018-06-03T10:14:36.666Z,34.84
2018-06-03T10:17:08.692Z,34.45
2018-06-03T10:19:40.667Z,35.84
2018-06-03T10:22:12.620Z,35.66
2018-06-03T10:24:44.671Z,34.72
2018-06-03T10:27:16.624Z,35.34
2018-06-03T10:29:48.655Z,34.74
2018-06-03T10:32:20.676Z,33.15
2018-06-03T10:34:52.663Z,30.86
2018-06-03T10:37:24.640Z,32.25
2018-06-03T10:39:56.703Z,32.81
2018-06-03T10:42:28.712Z,33.18
2018-06-03T10:45:00.784Z,31.87
2018-06-03T10:48:36.188Z,33.22
2018-06-03T10:51:08.187Z,32.00
2018-06-03T10:53:40.160Z,33.20
2018-06-03T10:56:12.132Z,34.74
2018-06-03T10:58:44.125Z,35.46
2018-06-03T11:01:16.087Z,32.77
2018-06-03T11:03:48.050Z,31.55
2018-06-03T11:06:20.019Z,30.16
2018-06-03T11:08:51.987Z,28.46
2018-06-03T11:11:23.955Z,29.10
2018-06-03T11:13:55.917Z,28.85
2018-06-03T11:16:27.904Z,29.87
2018-06-03T11:18:59.963Z,31.54
2018-06-03T11:21:31.943Z,32.93
2018-06-03T11:24:03.996Z,32.50
2018-06-03T11:26:36.003Z,33.18
2018-06-03T11:29:07.967Z,33.82
2018-06-03T11:31:39.947Z,34.30
2018-06-03T11:34:11.960Z,35.14
2018-06-03T11:36:43.951Z,34.31
2018-06-03T11:39:15.968Z,34.15
2018-06-03T11:41:47.965Z,34.36
2018-06-03T11:44:20.096Z,34.83
2018-06-03T11:46:52.103Z,35.49
2018-06-03T11:49:24.063Z,35.79
2018-06-03T11:51:56.136Z,34.53
2018-06-03T11:54:28.121Z,33.71
2018-06-03T11:57:01.332Z,34.09
2018-06-03T11:59:40.350Z,35.82
2018-06-03T12:02:13.999Z,37.15
2018-06-03T12:04:45.965Z,38.23
2018-06-03T12:07:17.928Z,38.67
2018-06-03T12:09:49.891Z,37.44
2018-06-03T12:12:21.883Z,37.34
2018-06-03T12:14:56.015Z,36.44
2018-06-03T12:17:28.616Z,36.13
2018-06-03T12:20:00.588Z,37.58
2018-06-03T12:22:32.568Z,34.37
2018-06-03T12:25:05.624Z,32.75
2018-06-03T12:27:37.620Z,34.77
2018-06-03T12:30:09.576Z,35.50
2018-06-03T12:32:42.173Z,34.90
2018-06-03T12:35:14.121Z,35.91
2018-06-03T12:37:46.100Z,34.82
2018-06-03T12:40:18.063Z,33.87
2018-06-03T12:42:50.051Z,35.34
2018-06-03T12:45:22.060Z,36.03
2018-06-03T12:47:54.055Z,36.30
2018-06-03T12:50:26.280Z,34.58
2018-06-03T12:52:58.276Z,35.64
2018-06-03T12:55:30.285Z,34.00
2018-06-03T12:58:02.300Z,31.58
2018-06-03T13:00:34.393Z,32.95
2018-06-03T13:03:06.485Z,34.83
2018-06-03T13:05:38.436Z,36.71
2018-06-03T13:08:10.421Z,38.16
2018-06-03T13:10:42.435Z,38.77
2018-06-03T13:13:14.812Z,38.17
2018-06-03T13:15:46.807Z,38.45
2018-06-03T13:18:18.783Z,39.39
2018-06-03T13:20:50.788Z,37.97
2018-06-03T13:23:22.793Z,38.10
2018-06-03T13:25:54.822Z,36.77
2018-06-03T13:28:26.828Z,36.42
2018-06-03T13:30:58.807Z,37.69
2018-06-03T13:33:30.798Z,38.44
2018-06-03T13:36:02.809Z,38.03
2018-06-03T13:38:34.814Z,38.25
2018-06-03T13:41:06.795Z,39.06
2018-06-03T13:43:38.827Z,40.25
2018-06-03T13:46:17.662Z,38.80
2018-06-03T13:48:49.666Z,39.03
2018-06-03T13:51:21.703Z,37.55
2018-06-03T13:53:53.640Z,38.01
2018-06-03T13:56:25.659Z,38.73
2018-06-03T13:58:57.653Z,40.19
2018-06-03T14:01:29.651Z,37.55
2018-06-03T14:04:01.635Z,35.67
2018-06-03T14:06:33.624Z,36.83
2018-06-03T14:09:06.088Z,38.32
2018-06-03T14:11:38.067Z,39.98
2018-06-03T14:14:10.055Z,36.28
2018-06-03T14:16:42.048Z,32.49
2018-06-03T14:19:14.030Z,31.67
2018-06-03T14:21:45.988Z,33.08
2018-06-03T14:24:17.982Z,35.49
2018-06-03T14:26:49.946Z,35.44
2018-06-03T14:29:21.932Z,35.45
2018-06-03T14:31:53.933Z,36.55
2018-06-03T14:34:25.933Z,36.87
2018-06-03T14:36:57.903Z,36.69
2018-06-03T14:39:29.910Z,37.57
2018-06-03T14:42:01.879Z,37.14
2018-06-03T14:44:33.941Z,37.57
2018-06-03T14:47:05.867Z,36.17
2018-06-03T14:49:37.844Z,36.20
2018-06-03T14:52:09.817Z,37.07
2018-06-03T14:54:41.841Z,36.12
2018-06-03T14:57:13.803Z,35.71
2018-06-03T14:59:45.748Z,36.19
2018-06-03T15:02:18.502Z,36.75
2018-06-03T15:04:50.499Z,35.87
2018-06-03T15:07:22.460Z,35.79
2018-06-03T15:09:54.442Z,36.03
2018-06-03T15:12:26.408Z,36.79
2018-06-03T15:14:58.384Z,36.79
2018-06-03T15:17:30.375Z,37.30
2018-06-03T15:20:02.376Z,37.01
2018-06-03T15:22:34.356Z,36.88
2018-06-03T15:25:06.367Z,37.32
2018-06-03T15:27:38.346Z,37.55
2018-06-03T15:30:10.404Z,38.00
2018-06-03T15:32:42.402Z,38.61
2018-06-03T15:35:14.401Z,38.60
2018-06-03T15:37:46.387Z,37.26
2018-06-03T15:40:18.356Z,36.72
2018-06-03T15:42:50.326Z,35.07
2018-06-03T15:45:22.311Z,35.37
2018-06-03T15:47:54.295Z,34.75
2018-06-03T15:50:26.322Z,34.52
2018-06-03T15:52:58.284Z,33.46
2018-06-03T15:55:30.291Z,33.37
2018-06-03T15:58:02.263Z,33.38
2018-06-03T16:00:34.244Z,33.99
2018-06-03T16:03:06.342Z,34.76
2018-06-03T16:05:38.231Z,35.52
2018-06-03T16:08:10.215Z,35.17
2018-06-03T16:10:42.203Z,35.32
2018-06-03T16:13:14.171Z,33.86
2018-06-03T16:15:47.417Z,33.12
2018-06-03T16:18:19.401Z,33.58
2018-06-03T16:20:51.394Z,34.48
2018-06-03T16:23:23.379Z,34.21
2018-06-03T16:25:55.375Z,34.68
2018-06-03T16:28:27.357Z,34.87
2018-06-03T16:30:59.359Z,34.98
2018-06-03T16:33:31.327Z,34.74
2018-06-03T16:36:03.367Z,33.87
2018-06-03T16:38:35.324Z,34.81
2018-06-03T16:41:07.306Z,33.88
2018-06-03T16:43:39.272Z,33.44
2018-06-03T16:46:11.279Z,32.23
2018-06-03T16:48:43.278Z,31.49
2018-06-03T16:51:15.207Z,31.13
2018-06-03T16:53:47.167Z,31.27
2018-06-03T16:56:19.149Z,31.02
2018-06-03T16:58:51.108Z,30.71
2018-06-03T17:01:23.068Z,30.87
2018-06-03T17:03:55.073Z,30.68
2018-06-03T17:06:27.035Z,29.56
2018-06-03T17:08:58.995Z,29.39
2018-06-03T17:11:30.975Z,29.10
2018-06-03T17:14:02.951Z,28.51
2018-06-03T17:16:34.939Z,28.26
2018-06-03T17:19:06.935Z,28.07
2018-06-03T17:21:38.875Z,28.22
2018-06-03T17:24:10.828Z,27.99
2018-06-03T17:26:42.794Z,27.93
2018-06-03T17:29:14.743Z,27.68
2018-06-03T17:31:46.731Z,27.65
2018-06-03T17:34:18.731Z,27.57
2018-06-03T17:36:50.679Z,27.53
2018-06-03T17:39:22.727Z,27.38
2018-06-03T17:41:54.701Z,27.37
2018-06-03T17:44:26.652Z,27.21
2018-06-03T17:46:58.701Z,27.17
2018-06-03T17:49:30.595Z,27.18
2018-06-03T17:52:02.604Z,27.07
2018-06-03T17:54:34.565Z,26.97
2018-06-03T17:57:06.532Z,26.92
2018-06-03T17:59:38.477Z,26.87
2018-06-03T18:02:10.458Z,26.80
2018-06-03T18:04:42.415Z,26.72
2018-06-03T18:07:14.392Z,26.61
2018-06-03T18:09:46.347Z,26.50
2018-06-03T18:12:18.319Z,26.33
2018-06-03T18:14:50.276Z,26.23
2018-06-03T18:17:22.257Z,26.11
2018-06-03T18:19:54.211Z,26.09
2018-06-03T18:22:26.215Z,26.03
2018-06-03T18:24:58.165Z,25.91
2018-06-03T18:27:30.135Z,25.84
2018-06-03T18:30:02.123Z,25.87
2018-06-03T18:32:34.105Z,25.80
2018-06-03T18:35:06.058Z,25.66
2018-06-03T18:37:38.078Z,25.62
2018-06-03T18:40:10.044Z,25.48
2018-06-03T18:42:42.036Z,25.24
2018-06-03T18:45:13.991Z,25.14
2018-06-03T18:47:45.955Z,25.09
2018-06-03T18:50:17.945Z,25.13
2018-06-03T18:52:49.916Z,24.98
2018-06-03T18:55:21.896Z,25.00
2018-06-03T18:57:53.873Z,24.83
2018-06-03T19:00:25.824Z,24.62
2018-06-03T19:02:57.791Z,24.54
2018-06-03T19:05:29.780Z,24.40
2018-06-03T19:08:01.796Z,24.23
2018-06-03T19:10:36.724Z,24.27
2018-06-03T19:13:08.686Z,24.33
2018-06-03T19:15:40.652Z,24.27
2018-06-03T19:18:12.667Z,24.22
2018-06-03T19:20:44.615Z,24.18
2018-06-03T19:23:16.620Z,23.95
2018-06-03T19:25:48.603Z,23.86
2018-06-03T19:28:20.567Z,23.70
2018-06-03T19:30:52.527Z,23.52
2018-06-03T19:33:24.566Z,23.43
2018-06-03T19:35:56.461Z,23.31
2018-06-03T19:38:28.444Z,23.37
2018-06-03T19:41:00.407Z,23.35
2018-06-03T19:43:33.183Z,23.14
2018-06-03T19:46:05.178Z,23.23
2018-06-03T19:48:38.496Z,23.02
2018-06-03T19:51:10.502Z,23.13
2018-06-03T19:53:42.473Z,23.08
2018-06-03T19:56:14.456Z,22.98
2018-06-03T19:58:46.439Z,22.87
2018-06-03T20:01:18.404Z,22.70
2018-06-03T20:03:50.422Z,22.55
2018-06-03T20:06:22.438Z,22.41
2018-06-03T20:08:54.351Z,22.26
2018-06-03T20:11:26.340Z,22.22
2018-06-03T20:13:58.316Z,22.33
2018-06-03T20:16:30.436Z,22.25
2018-06-03T20:19:02.403Z,22.34
2018-06-03T20:21:34.395Z,22.22
2018-06-03T20:24:06.359Z,22.04
2018-06-03T20:26:38.339Z,21.96
2018-06-03T20:29:10.337Z,21.76
2018-06-03T20:31:42.293Z,21.56
2018-06-03T20:34:14.316Z,21.58
2018-06-03T20:36:46.276Z,21.52
2018-06-03T20:39:18.315Z,21.31
2018-06-03T20:41:50.259Z,21.27
2018-06-03T20:44:22.223Z,21.20
2018-06-03T20:46:54.184Z,21.28
2018-06-03T20:49:26.151Z,21.39
2018-06-03T20:51:58.108Z,21.25
2018-06-03T20:54:30.065Z,21.06
2018-06-03T20:57:02.025Z,20.96
2018-06-03T20:59:34.035Z,21.17
2018-06-03T21:02:06.010Z,20.99
2018-06-03T21:04:38.014Z,20.82
2018-06-03T21:07:09.987Z,20.73
2018-06-03T21:09:41.950Z,20.85
2018-06-03T21:12:13.959Z,20.87
2018-06-03T21:14:45.932Z,20.89
2018-06-03T21:17:17.896Z,20.87
2018-06-03T21:19:49.860Z,20.83
2018-06-03T21:22:21.819Z,20.68
2018-06-03T21:24:53.815Z,20.82
2018-06-03T21:27:25.781Z,20.79
2018-06-03T21:29:57.767Z,20.98
2018-06-03T21:32:31.000Z,21.07
2018-06-03T21:35:03.015Z,21.11
2018-06-03T21:37:34.978Z,21.14
2018-06-03T21:40:06.955Z,21.23
2018-06-03T21:42:38.918Z,21.23
2018-06-03T21:45:10.878Z,21.27
2018-06-03T21:47:42.824Z,21.29
2018-06-03T21:50:14.856Z,21.30
2018-06-03T21:52:46.832Z,21.31
2018-06-03T21:55:18.803Z,21.25
2018-06-03T21:57:50.764Z,21.04
2018-06-03T22:00:22.804Z,20.89
2018-06-03T22:02:54.791Z,20.97
2018-06-03T22:08:05.385Z,21.02
2018-06-03T22:10:37.349Z,20.95
2018-06-03T22:13:09.308Z,20.83
2018-06-03T22:15:41.268Z,20.62
2018-06-03T22:18:14.012Z,20.49
2018-06-03T22:20:45.923Z,20.36
2018-06-03T22:23:17.891Z,20.32
2018-06-03T22:25:49.859Z,20.30
2018-06-03T22:28:22.473Z,20.04
2018-06-03T22:30:54.481Z,19.89
2018-06-03T22:33:26.452Z,19.80
2018-06-03T22:35:58.407Z,19.71
2018-06-03T22:38:30.415Z,19.58
2018-06-03T22:41:02.384Z,19.45
2018-06-03T22:43:34.345Z,19.37
2018-06-03T22:46:06.328Z,19.29
2018-06-03T22:48:38.309Z,19.20
2018-06-03T22:51:10.291Z,19.33
2018-06-03T22:53:42.243Z,19.19
2018-06-03T22:56:14.226Z,19.17
2018-06-03T22:58:46.179Z,19.00
2018-06-03T23:01:18.176Z,18.90
2018-06-03T23:03:50.143Z,18.86
2018-06-03T23:06:22.119Z,19.00
2018-06-03T23:08:54.083Z,18.87
2018-06-03T23:11:26.056Z,18.79
2018-06-03T23:13:57.999Z,18.62
2018-06-03T23:16:29.988Z,18.55
2018-06-03T23:19:01.928Z,18.57
2018-06-03T23:21:33.897Z,18.69
2018-06-03T23:24:05.855Z,18.71
2018-06-03T23:26:38.523Z,18.60
2018-06-03T23:29:10.480Z,18.75
2018-06-03T23:31:42.452Z,18.70
2018-06-03T23:34:14.415Z,18.59
2018-06-03T23:36:47.694Z,18.37
2018-06-03T23:39:19.628Z,18.29
2018-06-03T23:41:51.600Z,18.29
2018-06-03T23:44:23.556Z,18.16
2018-06-03T23:46:55.531Z,18.13
2018-06-03T23:49:27.493Z,18.18
2018-06-03T23:51:59.447Z,18.17
2018-06-03T23:54:31.400Z,18.09
2018-06-03T23:57:03.411Z,17.97
2018-06-03T23:59:35.437Z,17.98
